Nagakanemaru — JJ3281 — position and weather

sailwx.info

Track history (hours):
 
Tides and Currents Weather Stations Pressure Air Temp Water Temp Dewpoint Dewpoint Depression Visibility Wind Speed Wind Dir Waves Ship Positions

Nagakanemaru

Last reported at 2017-Dec-16 01:29 UTC. Time now 2017-Dec-16 01:37 UTC.
Position N 34°42' E 135°13'.

Length 28 m.

Type: Towing. MMSI: 431301688.

Date/timePositionNaut miles runAvg speedWind from/ knotsBaromVisibWave heightAir tempDewpointWater temp
2017-Dec-16 01:29N 34°42' E 135°13'1 1.6
2017-Dec-16 00:59N 34°41' E 135°13'0 0.0
2017-Dec-16 00:29N 34°41' E 135°13'3 6.0
2017-Dec-16 00:00N 34°41' E 135°16'510.2
2017-Dec-15 23:30N 34°40' E 135°22'4 7.3
2017-Dec-15 22:57N 34°40' E 135°27'1 2.4
2017-Dec-15 22:30N 34°40' E 135°26'2 3.8
2017-Dec-15 22:00N 34°40' E 135°24'2 3.5
2017-Dec-15 21:30N 34°40' E 135°22'3 6.7
2017-Dec-15 21:00N 34°38' E 135°18'3 5.8
2017-Dec-15 20:30N 34°37' E 135°15'2 4.5
2017-Dec-15 20:00N 34°36' E 135°12'2 4.9
2017-Dec-15 19:30N 34°35' E 135°10'3 5.3
2017-Dec-15 19:00N 34°35' E 135°06'4 7.2
2017-Dec-15 18:30N 34°36' E 135°02'4 8.2
2017-Dec-15 18:00N 34°37' E 134°57'4 7.9
2017-Dec-15 17:30N 34°37' E 134°53'3 5.9
2017-Dec-15 17:00N 34°38' E 134°49'3 5.0
2017-Dec-15 16:28N 34°38' E 134°46'2 5.1
2017-Dec-15 16:00N 34°38' E 134°43'3 4.9
2017-Dec-15 15:20N 34°37' E 134°39'104 6.9
2017-Dec-15 00:21N 34°10' E 132°38'54 7.3
2017-Dec-14 16:55N 33°49' E 131°38'3 7.9
2017-Dec-14 16:30N 33°50' E 131°34'4 8.2
2017-Dec-14 15:59N 33°50' E 131°29'8 8.5
2017-Dec-14 15:00N 33°52' E 131°19'4 8.8
2017-Dec-14 14:30N 33°52' E 131°14'4 8.9
2017-Dec-14 14:00N 33°54' E 131°09'4 8.7
2017-Dec-14 13:30N 33°57' E 131°05'4 8.4
2017-Dec-14 13:00N 33°59' E 131°00'4 7.9
2017-Dec-14 12:30N 33°56' E 130°56'3 5.2
2017-Dec-14 12:00N 33°55' E 130°54'4 7.3
2017-Dec-14 11:30N 33°57' E 130°51'4 7.7
2017-Dec-14 11:00N 33°58' E 130°46'4 8.0
2017-Dec-14 10:30N 33°57' E 130°41'3 6.1
2017-Dec-14 10:00N 33°57' E 130°38'2 4.5
2017-Dec-14 09:30N 33°57' E 130°35'3 6.0
2017-Dec-14 09:00N 33°56' E 130°32'3 5.8
2017-Dec-14 08:30N 33°55' E 130°28'3 6.2
2017-Dec-14 08:00N 33°52' E 130°26'3 6.5
2017-Dec-14 07:30N 33°50' E 130°23'3 6.3
2017-Dec-14 07:00N 33°48' E 130°20'3 6.0
2017-Dec-14 06:29N 33°46' E 130°18'3 5.7
2017-Dec-14 05:53N 33°44' E 130°14'2 5.7
2017-Dec-14 05:28N 33°42' E 130°12'  
2017-Dec-09 15:26N 33°45' E 130°16'2 4.5
2017-Dec-09 14:53N 33°46' E 130°18'2 4.3
2017-Dec-09 14:28N 33°47' E 130°20'4 4.3
2017-Dec-09 13:36N 33°50' E 130°23'1 4.3
2017-Dec-09 13:26N 33°50' E 130°24'2 4.1
2017-Dec-09 13:00N 33°52' E 130°25'2 4.4
2017-Dec-09 12:31N 33°53' E 130°27'4 6.8
2017-Dec-09 11:59N 33°56' E 130°30'3 6.1
2017-Dec-09 11:30N 33°57' E 130°33'3 5.8
2017-Dec-09 10:59N 33°57' E 130°37'2 4.5
2017-Dec-09 10:31N 33°57' E 130°39'3 6.5
2017-Dec-09 10:00N 33°58' E 130°43'3 6.4
2017-Dec-09 09:30N 33°58' E 130°47'3 6.7
2017-Dec-09 09:01N 33°57' E 130°51'4 8.1
2017-Dec-09 08:31N 33°54' E 130°55'4 8.8
2017-Dec-09 08:00N 33°58' E 130°58'4 7.8
2017-Dec-09 07:30N 33°58' E 131°03'4 8.1
2017-Dec-09 07:00N 33°56' E 131°07'3 6.6
2017-Dec-09 06:30N 33°54' E 131°10'2 4.9
2017-Dec-09 06:00N 33°53' E 131°13'2 4.2
2017-Dec-09 05:30N 33°52' E 131°15'2 4.3
2017-Dec-09 05:00N 33°52' E 131°18'2 4.3
2017-Dec-09 04:30N 33°52' E 131°20'2 3.8
2017-Dec-09 04:00N 33°51' E 131°23'2 3.7
2017-Dec-09 03:31N 33°51' E 131°25'2 4.0
2017-Dec-09 03:00N 33°51' E 131°27'2 3.6
2017-Dec-09 02:31N 33°51' E 131°29'2 3.5
2017-Dec-09 02:00N 33°51' E 131°32'2 4.8
2017-Dec-09 01:30N 33°50' E 131°34'3 4.6
2017-Dec-09 00:53N 33°50' E 131°38'23 4.5
2017-Dec-08 19:50N 33°46' E 132°04'30 5.6
2017-Dec-08 14:34N 34°00' E 132°36'1 6.1
2017-Dec-08 14:29N 34°00' E 132°36'3 6.4
2017-Dec-08 14:00N 34°02' E 132°39'98 4.1
2017-Dec-07 13:56N 34°30' E 134°33'3 6.7
2017-Dec-07 13:28N 34°28' E 134°36'3 5.5
2017-Dec-07 13:00N 34°25' E 134°37'3 3.2
2017-Dec-07 12:06N 34°22' E 134°38'0 3.0
2017-Dec-07 12:00N 34°22' E 134°38'2 3.1
2017-Dec-07 11:30N 34°21' E 134°37'2 3.1
2017-Dec-07 11:00N 34°19' E 134°37'12 5.2
2017-Dec-07 08:47N 34°10' E 134°45'2 4.5
2017-Dec-07 08:25N 34°09' E 134°46'  
Track history (hours):
 
Tides and Currents Weather Stations Pressure Air Temp Water Temp Dewpoint Dewpoint Depression Visibility Wind Speed Wind Dir Waves Ship Positions

Nagakanemaru

Last reported at 2017-Dec-16 01:29 UTC. Time now 2017-Dec-16 01:37 UTC.
Position N 34°42' E 135°13'.

Length 28 m.

Type: Towing. MMSI: 431301688.

Date/timePositionNaut miles runAvg speedWind from/ knotsBaromVisibWave heightAir tempDewpointWater temp
2017-Dec-16 01:29N 34°42' E 135°13'1 1.6
2017-Dec-16 00:59N 34°41' E 135°13'0 0.0
2017-Dec-16 00:29N 34°41' E 135°13'3 6.0
2017-Dec-16 00:00N 34°41' E 135°16'510.2
2017-Dec-15 23:30N 34°40' E 135°22'4 7.3
2017-Dec-15 22:57N 34°40' E 135°27'1 2.4
2017-Dec-15 22:30N 34°40' E 135°26'2 3.8
2017-Dec-15 22:00N 34°40' E 135°24'2 3.5
2017-Dec-15 21:30N 34°40' E 135°22'3 6.7
2017-Dec-15 21:00N 34°38' E 135°18'3 5.8
2017-Dec-15 20:30N 34°37' E 135°15'2 4.5
2017-Dec-15 20:00N 34°36' E 135°12'2 4.9
2017-Dec-15 19:30N 34°35' E 135°10'3 5.3
2017-Dec-15 19:00N 34°35' E 135°06'4 7.2
2017-Dec-15 18:30N 34°36' E 135°02'4 8.2
2017-Dec-15 18:00N 34°37' E 134°57'4 7.9
2017-Dec-15 17:30N 34°37' E 134°53'3 5.9
2017-Dec-15 17:00N 34°38' E 134°49'3 5.0
2017-Dec-15 16:28N 34°38' E 134°46'2 5.1
2017-Dec-15 16:00N 34°38' E 134°43'3 4.9
2017-Dec-15 15:20N 34°37' E 134°39'104 6.9
2017-Dec-15 00:21N 34°10' E 132°38'54 7.3
2017-Dec-14 16:55N 33°49' E 131°38'3 7.9
2017-Dec-14 16:30N 33°50' E 131°34'4 8.2
2017-Dec-14 15:59N 33°50' E 131°29'8 8.5
2017-Dec-14 15:00N 33°52' E 131°19'4 8.8
2017-Dec-14 14:30N 33°52' E 131°14'4 8.9
2017-Dec-14 14:00N 33°54' E 131°09'4 8.7
2017-Dec-14 13:30N 33°57' E 131°05'4 8.4
2017-Dec-14 13:00N 33°59' E 131°00'4 7.9
2017-Dec-14 12:30N 33°56' E 130°56'3 5.2
2017-Dec-14 12:00N 33°55' E 130°54'4 7.3
2017-Dec-14 11:30N 33°57' E 130°51'4 7.7
2017-Dec-14 11:00N 33°58' E 130°46'4 8.0
2017-Dec-14 10:30N 33°57' E 130°41'3 6.1
2017-Dec-14 10:00N 33°57' E 130°38'2 4.5
2017-Dec-14 09:30N 33°57' E 130°35'3 6.0
2017-Dec-14 09:00N 33°56' E 130°32'3 5.8
2017-Dec-14 08:30N 33°55' E 130°28'3 6.2
2017-Dec-14 08:00N 33°52' E 130°26'3 6.5
2017-Dec-14 07:30N 33°50' E 130°23'3 6.3
2017-Dec-14 07:00N 33°48' E 130°20'3 6.0
2017-Dec-14 06:29N 33°46' E 130°18'3 5.7
2017-Dec-14 05:53N 33°44' E 130°14'2 5.7
2017-Dec-14 05:28N 33°42' E 130°12'  
2017-Dec-09 15:26N 33°45' E 130°16'2 4.5
2017-Dec-09 14:53N 33°46' E 130°18'2 4.3
2017-Dec-09 14:28N 33°47' E 130°20'4 4.3
2017-Dec-09 13:36N 33°50' E 130°23'1 4.3
2017-Dec-09 13:26N 33°50' E 130°24'2 4.1
2017-Dec-09 13:00N 33°52' E 130°25'2 4.4
2017-Dec-09 12:31N 33°53' E 130°27'4 6.8
2017-Dec-09 11:59N 33°56' E 130°30'3 6.1
2017-Dec-09 11:30N 33°57' E 130°33'3 5.8
2017-Dec-09 10:59N 33°57' E 130°37'2 4.5
2017-Dec-09 10:31N 33°57' E 130°39'3 6.5
2017-Dec-09 10:00N 33°58' E 130°43'3 6.4
2017-Dec-09 09:30N 33°58' E 130°47'3 6.7
2017-Dec-09 09:01N 33°57' E 130°51'4 8.1
2017-Dec-09 08:31N 33°54' E 130°55'4 8.8
2017-Dec-09 08:00N 33°58' E 130°58'4 7.8
2017-Dec-09 07:30N 33°58' E 131°03'4 8.1
2017-Dec-09 07:00N 33°56' E 131°07'3 6.6
2017-Dec-09 06:30N 33°54' E 131°10'2 4.9
2017-Dec-09 06:00N 33°53' E 131°13'2 4.2
2017-Dec-09 05:30N 33°52' E 131°15'2 4.3
2017-Dec-09 05:00N 33°52' E 131°18'2 4.3
2017-Dec-09 04:30N 33°52' E 131°20'2 3.8
2017-Dec-09 04:00N 33°51' E 131°23'2 3.7
2017-Dec-09 03:31N 33°51' E 131°25'2 4.0
2017-Dec-09 03:00N 33°51' E 131°27'2 3.6
2017-Dec-09 02:31N 33°51' E 131°29'2 3.5
2017-Dec-09 02:00N 33°51' E 131°32'2 4.8
2017-Dec-09 01:30N 33°50' E 131°34'3 4.6
2017-Dec-09 00:53N 33°50' E 131°38'23 4.5
2017-Dec-08 19:50N 33°46' E 132°04'30 5.6
2017-Dec-08 14:34N 34°00' E 132°36'1 6.1
2017-Dec-08 14:29N 34°00' E 132°36'3 6.4
2017-Dec-08 14:00N 34°02' E 132°39'98 4.1
2017-Dec-07 13:56N 34°30' E 134°33'3 6.7
2017-Dec-07 13:28N 34°28' E 134°36'3 5.5
2017-Dec-07 13:00N 34°25' E 134°37'3 3.2
2017-Dec-07 12:06N 34°22' E 134°38'0 3.0
2017-Dec-07 12:00N 34°22' E 134°38'2 3.1
2017-Dec-07 11:30N 34°21' E 134°37'2 3.1
2017-Dec-07 11:00N 34°19' E 134°37'12 5.2
2017-Dec-07 08:47N 34°10' E 134°45'2 4.5
2017-Dec-07 08:25N 34°09' E 134°46'  

Dump ship's entire track history